Time;durP1;ratioP1;P1;durP2;ratioP2;P2;SDS_P1;SDS_P2;PMS_P1;PMS_P2;Temp;Humidity;BMP_temperature;BMP_pressure;BME280_temperature;BME280_humidity;BME280_pressure;Samples;Min_cycle;Max_cycle;Signal;HPM_P1;HPM_P2
2021/09/20 00:01:02;;;;;;;13.38;8.57;;;;;;;11.78;100.00;97901.25;4940174;29;20059;-80
2021/09/20 00:03:29;;;;;;;14.77;9.32;;;;;;;11.85;100.00;97913.25;4937399;29;20054;-78
2021/09/20 00:05:56;;;;;;;11.63;8.77;;;;;;;11.81;100.00;97915.00;4952542;28;20067;-80
2021/09/20 00:08:23;;;;;;;15.18;9.48;;;;;;;11.68;100.00;97917.81;4938502;29;20055;-78
2021/09/20 00:10:50;;;;;;;17.98;9.85;;;;;;;11.40;100.00;97919.13;4954587;29;20460;-81
2021/09/20 00:13:18;;;;;;;15.85;10.27;;;;;;;11.41;100.00;97918.03;4953436;29;20626;-80
2021/09/20 00:15:45;;;;;;;15.68;10.15;;;;;;;11.39;100.00;97929.19;4935428;29;20043;-81
2021/09/20 00:18:11;;;;;;;17.92;11.07;;;;;;;11.39;100.00;97922.94;4936864;29;20098;-80
2021/09/20 00:20:38;;;;;;;17.20;9.52;;;;;;;11.48;100.00;97924.59;4936305;29;20169;-79
2021/09/20 00:23:05;;;;;;;19.95;9.82;;;;;;;11.54;100.00;97926.03;4933493;29;20106;-80
2021/09/20 00:25:32;;;;;;;15.35;9.95;;;;;;;11.68;100.00;97917.81;4952858;28;20049;-80
2021/09/20 00:27:59;;;;;;;18.48;9.63;;;;;;;11.60;100.00;97922.09;4952584;29;20043;-78
2021/09/20 00:30:25;;;;;;;14.93;9.45;;;;;;;11.65;100.00;97915.72;4933532;29;20117;-79
2021/09/20 00:32:52;;;;;;;16.35;9.38;;;;;;;11.68;100.00;97913.22;4949626;28;20043;-79
2021/09/20 00:38:13;;;;;;;16.88;9.90;;;;;;;11.85;100.00;97924.09;5007079;28;20057;-84
2021/09/20 00:40:43;;;;;;;20.13;9.18;;;;;;;11.86;100.00;97903.19;4979981;28;20049;-83
2021/09/20 00:43:10;;;;;;;17.77;10.07;;;;;;;11.95;100.00;97904.00;4985920;28;20049;-83
2021/09/20 00:45:37;;;;;;;15.75;9.40;;;;;;;11.88;100.00;97900.97;5000191;28;20073;-84
2021/09/20 00:48:04;;;;;;;13.82;9.88;;;;;;;12.00;100.00;97911.97;4999159;28;20053;-84
2021/09/20 00:50:32;;;;;;;14.77;10.07;;;;;;;12.01;100.00;97908.16;4974689;23;20055;-82
2021/09/20 00:52:58;;;;;;;16.23;9.70;;;;;;;11.99;100.00;97910.41;4938255;28;20046;-83
2021/09/20 00:55:25;;;;;;;14.48;9.13;;;;;;;11.91;100.00;97911.19;4954862;28;20043;-82
2021/09/20 00:57:52;;;;;;;16.27;9.50;;;;;;;11.91;100.00;97913.91;4972041;28;20050;-81
2021/09/20 01:00:19;;;;;;;13.63;9.57;;;;;;;11.96;100.00;97916.47;4955107;28;20407;-84
2021/09/20 01:02:46;;;;;;;14.93;9.02;;;;;;;11.98;100.00;97906.09;4971959;28;20089;-81
2021/09/20 01:05:13;;;;;;;16.90;9.40;;;;;;;12.02;100.00;97911.69;4970830;28;20138;-82
2021/09/20 01:07:40;;;;;;;17.75;10.65;;;;;;;11.92;100.00;97915.50;4971788;28;20070;-82
2021/09/20 01:10:08;;;;;;;14.23;9.93;;;;;;;11.88;100.00;97922.66;4954870;28;20105;-82
2021/09/20 01:12:35;;;;;;;15.88;9.90;;;;;;;11.83;100.00;97922.81;4938414;28;20054;-81
2021/09/20 01:15:03;;;;;;;17.85;9.68;;;;;;;11.69;100.00;97917.50;4938528;28;20051;-82
2021/09/20 01:17:30;;;;;;;14.82;9.70;;;;;;;11.88;100.00;97920.75;4971188;28;20055;-81
2021/09/20 01:19:59;;;;;;;14.82;9.55;;;;;;;11.74;100.00;97911.16;4954603;28;20145;-82
2021/09/20 01:22:28;;;;;;;15.13;9.38;;;;;;;11.77;100.00;97915.94;4954380;28;20126;-82
2021/09/20 01:24:55;;;;;;;16.23;9.93;;;;;;;11.81;100.00;97911.50;4971604;28;20071;-81
2021/09/20 01:27:22;;;;;;;15.90;10.07;;;;;;;11.90;100.00;97919.66;4971675;28;20098;-82
2021/09/20 01:29:49;;;;;;;18.30;9.20;;;;;;;11.88;100.00;97915.34;4971656;28;20042;-82
2021/09/20 01:32:16;;;;;;;14.85;9.85;;;;;;;11.70;100.00;97926.44;4954798;28;20043;-83
2021/09/20 01:34:44;;;;;;;14.95;10.50;;;;;;;11.72;100.00;97924.22;4971484;28;20069;-82
2021/09/20 01:37:11;;;;;;;13.73;9.85;;;;;;;11.85;100.00;97923.28;4954329;28;20051;-82
2021/09/20 01:39:38;;;;;;;17.73;10.40;;;;;;;11.60;100.00;97929.41;4971716;28;20407;-83
2021/09/20 01:42:05;;;;;;;20.38;10.13;;;;;;;11.75;100.00;97920.88;4953954;28;20050;-82
2021/09/20 01:44:32;;;;;;;16.70;9.18;;;;;;;11.85;100.00;97931.44;4938544;28;20109;-82
2021/09/20 01:46:59;;;;;;;16.25;9.93;;;;;;;11.56;100.00;97928.47;4942012;28;20076;-81
2021/09/20 01:49:27;;;;;;;14.93;10.15;;;;;;;11.72;100.00;97932.34;4958132;28;20047;-81
2021/09/20 01:51:57;;;;;;;16.85;10.40;;;;;;;11.82;100.00;97929.34;4958276;28;20058;-80
2021/09/20 01:54:24;;;;;;;15.23;10.20;;;;;;;11.74;100.00;97928.22;4975935;28;20136;-81
2021/09/20 01:56:50;;;;;;;14.73;9.63;;;;;;;11.66;100.00;97931.69;4975298;28;20066;-81
2021/09/20 01:59:17;;;;;;;17.83;10.00;;;;;;;11.72;100.00;97927.72;4975721;28;20062;-81
2021/09/20 02:01:44;;;;;;;14.75;9.75;;;;;;;11.64;100.00;97931.19;4975253;28;20053;-81
2021/09/20 02:04:11;;;;;;;15.68;10.50;;;;;;;11.46;100.00;97939.59;4958549;28;20055;-81
2021/09/20 02:06:37;;;;;;;19.63;9.93;;;;;;;11.64;100.00;97933.13;4974492;28;20468;-81
2021/09/20 02:09:08;;;;;;;16.70;10.77;;;;;;;11.56;100.00;97925.75;4957460;28;20081;-82
2021/09/20 02:11:35;;;;;;;17.30;11.32;;;;;;;11.53;100.00;97929.88;4973524;28;20456;-81
2021/09/20 02:14:02;;;;;;;20.05;10.05;;;;;;;11.54;100.00;97933.38;4957860;28;20061;-83
2021/09/20 02:16:31;;;;;;;16.48;10.35;;;;;;;11.61;100.00;97929.13;4959449;28;20058;-81
2021/09/20 02:18:58;;;;;;;17.75;10.75;;;;;;;11.63;100.00;97932.31;4959689;28;20058;-81
2021/09/20 02:21:25;;;;;;;16.23;10.02;;;;;;;11.61;100.00;97939.97;4944177;28;20047;-83
2021/09/20 02:23:51;;;;;;;16.65;10.15;;;;;;;11.73;100.00;97923.09;4944766;28;20046;-81
2021/09/20 02:26:18;;;;;;;16.25;9.95;;;;;;;11.72;100.00;97927.72;4963995;28;20051;-82
2021/09/20 02:28:45;;;;;;;16.58;10.15;;;;;;;11.75;100.00;97935.25;4957625;28;20046;-82
2021/09/20 02:31:12;;;;;;;16.95;9.57;;;;;;;11.72;100.00;97929.63;4941225;28;20058;-82
2021/09/20 02:33:40;;;;;;;17.15;10.18;;;;;;;11.71;100.00;97941.63;4941002;28;20051;-82
2021/09/20 02:36:08;;;;;;;13.60;10.10;;;;;;;11.74;100.00;97938.28;4941134;28;20061;-82
2021/09/20 02:38:39;;;;;;;16.48;10.00;;;;;;;11.62;100.00;97951.59;4957699;28;20047;-82
2021/09/20 02:41:09;;;;;;;16.17;9.73;;;;;;;11.65;100.00;97940.13;4957557;28;20042;-82
2021/09/20 02:43:37;;;;;;;16.83;10.90;;;;;;;11.65;100.00;97940.13;4956438;28;20049;-82
2021/09/20 02:46:04;;;;;;;16.05;10.27;;;;;;;11.53;100.00;97943.44;4940910;28;20051;-82
2021/09/20 02:48:33;;;;;;;15.85;10.40;;;;;;;11.62;100.00;97946.97;4956922;28;20070;-82
2021/09/20 02:51:02;;;;;;;18.33;10.43;;;;;;;11.71;100.00;97941.63;4957133;28;20073;-83
2021/09/20 02:53:30;;;;;;;21.42;10.93;;;;;;;11.59;100.00;97942.16;4957015;28;20047;-82
2021/09/20 02:55:57;;;;;;;19.25;10.88;;;;;;;11.65;100.00;97945.53;4956899;28;20531;-82
2021/09/20 02:58:24;;;;;;;17.58;10.45;;;;;;;11.52;100.00;97941.84;4941105;28;20170;-82
2021/09/20 03:00:52;;;;;;;16.15;10.13;;;;;;;11.59;100.00;97944.06;4974347;28;20039;-81
2021/09/20 03:03:20;;;;;;;15.43;10.82;;;;;;;11.55;100.00;97954.75;4957188;28;20057;-82
2021/09/20 03:05:47;;;;;;;23.52;11.90;;;;;;;11.42;100.00;97952.16;4959911;28;20046;-81
2021/09/20 03:08:14;;;;;;;19.63;10.05;;;;;;;11.63;100.00;97958.63;4975426;28;20054;-79
2021/09/20 03:10:40;;;;;;;17.20;10.55;;;;;;;11.59;100.00;97955.72;4957559;28;20381;-81
2021/09/20 03:13:17;;;;;;;16.98;11.52;;;;;;;11.68;100.00;97951.19;4959745;28;20038;-80
2021/09/20 03:15:44;;;;;;;20.52;10.52;;;;;;;11.69;100.00;97949.28;4958674;28;20105;-80
2021/09/20 03:18:14;;;;;;;23.27;11.05;;;;;;;11.66;100.00;97947.97;4957831;28;20125;-81
2021/09/20 03:20:49;;;;;;;21.33;11.27;;;;;;;11.67;100.00;97948.72;4976239;28;20391;-82
2021/09/20 03:23:19;;;;;;;19.40;11.40;;;;;;;11.66;100.00;97964.22;4958434;28;20066;-81
2021/09/20 03:25:46;;;;;;;21.88;11.82;;;;;;;11.72;100.00;97962.19;4974415;28;20510;-80
2021/09/20 03:28:13;;;;;;;20.35;11.80;;;;;;;11.80;100.00;97966.84;4975029;28;20175;-79
2021/09/20 03:30:53;;;;;;;24.23;11.77;;;;;;;11.83;100.00;97963.50;4959388;28;20518;-81
2021/09/20 03:33:25;;;;;;;19.70;12.00;;;;;;;11.77;100.00;97970.97;4972910;28;20046;-79
2021/09/20 03:35:56;;;;;;;21.05;11.73;;;;;;;11.82;100.00;97970.03;4972777;28;20041;-80
2021/09/20 03:38:23;;;;;;;22.08;12.07;;;;;;;11.93;100.00;97965.13;4956694;28;20061;-80
2021/09/20 03:40:49;;;;;;;18.98;11.65;;;;;;;11.97;100.00;97964.19;4973029;28;20054;-79
2021/09/20 03:43:16;;;;;;;19.25;10.77;;;;;;;11.98;100.00;97964.97;4972785;28;20492;-80
2021/09/20 03:45:47;;;;;;;23.33;11.73;;;;;;;11.94;100.00;97959.41;4972998;28;20039;-80
2021/09/20 03:48:24;;;;;;;21.77;11.07;;;;;;;11.90;100.00;97960.34;4958813;28;20039;-80
2021/09/20 03:50:53;;;;;;;18.25;11.73;;;;;;;11.91;100.00;97957.31;4974275;28;20463;-80
2021/09/20 03:53:20;;;;;;;18.20;11.02;;;;;;;11.98;100.00;97967.69;4972896;28;20131;-79
2021/09/20 03:55:48;;;;;;;24.60;11.13;;;;;;;11.95;100.00;97977.25;4973363;28;20129;-81
2021/09/20 03:58:15;;;;;;;21.13;11.48;;;;;;;11.96;100.00;97968.00;4974985;28;20491;-81
2021/09/20 04:00:41;;;;;;;18.25;11.23;;;;;;;11.57;100.00;97966.09;4956804;28;20054;-80
2021/09/20 04:03:09;;;;;;;19.73;11.85;;;;;;;11.72;100.00;97960.28;4974550;28;20051;-79
2021/09/20 04:05:36;;;;;;;19.73;11.60;;;;;;;11.87;100.00;97978.84;4973293;28;20455;-80
2021/09/20 04:08:03;;;;;;;19.38;11.25;;;;;;;11.96;100.00;97975.34;4971800;28;20077;-80
2021/09/20 04:10:29;;;;;;;20.13;11.75;;;;;;;11.93;100.00;97982.19;4973812;28;20046;-80
2021/09/20 04:12:56;;;;;;;20.45;11.90;;;;;;;12.03;100.00;97991.97;4971882;28;20538;-81
2021/09/20 04:15:26;;;;;;;21.80;12.27;;;;;;;11.87;100.00;97969.91;4976691;28;20360;-82
2021/09/20 04:17:53;;;;;;;21.48;11.38;;;;;;;11.85;100.00;97982.97;4974231;28;20042;-81
2021/09/20 04:20:19;;;;;;;16.17;10.55;;;;;;;11.90;100.00;97979.34;4977796;28;20530;-79
2021/09/20 04:22:46;;;;;;;18.63;12.02;;;;;;;11.86;100.00;97976.44;4956570;28;20101;-81
2021/09/20 04:25:12;;;;;;;20.23;11.57;;;;;;;11.81;100.00;97979.31;4973468;28;20058;-81
2021/09/20 04:27:39;;;;;;;20.88;11.30;;;;;;;11.69;100.00;97979.88;4971717;28;20127;-80
2021/09/20 04:30:07;;;;;;;24.23;11.82;;;;;;;11.56;100.00;97979.97;4972615;28;20463;-81
2021/09/20 04:32:33;;;;;;;19.30;11.52;;;;;;;11.63;100.00;97981.13;4973373;28;20079;-85
2021/09/20 04:35:00;;;;;;;19.30;12.10;;;;;;;11.68;100.00;97985.59;4958368;28;20303;-84
2021/09/20 04:37:31;;;;;;;22.50;12.30;;;;;;;11.57;100.00;97997.81;4972652;28;20081;-83
2021/09/20 04:39:58;;;;;;;17.10;10.82;;;;;;;11.61;100.00;97998.81;4958523;28;20436;-85
2021/09/20 04:42:27;;;;;;;20.83;11.68;;;;;;;11.49;100.00;97987.72;4956245;28;20059;-80
2021/09/20 04:44:54;;;;;;;22.38;12.48;;;;;;;11.41;100.00;98007.50;4972073;28;20496;-81
2021/09/20 04:47:20;;;;;;;19.83;11.25;;;;;;;11.48;100.00;98014.06;4954515;28;20090;-81
2021/09/20 04:49:47;;;;;;;20.58;11.48;;;;;;;11.60;100.00;98002.63;4973407;28;20109;-80
2021/09/20 04:52:13;;;;;;;22.27;12.77;;;;;;;11.61;100.00;98005.03;4958891;28;20062;-80
2021/09/20 04:54:40;;;;;;;21.95;12.90;;;;;;;11.62;100.00;98011.25;4960673;28;20098;-81
2021/09/20 04:57:06;;;;;;;20.33;12.32;;;;;;;11.65;100.00;98011.44;4973077;28;20078;-81
2021/09/20 04:59:33;;;;;;;22.55;12.48;;;;;;;11.74;100.00;98016.94;4962765;28;20123;-81
2021/09/20 05:01:59;;;;;;;19.52;11.68;;;;;;;11.66;100.00;98017.66;4981432;28;20070;-82
2021/09/20 05:04:26;;;;;;;19.25;11.68;;;;;;;11.75;100.00;98018.50;4981778;28;20062;-82
2021/09/20 05:06:53;;;;;;;22.55;11.85;;;;;;;11.74;100.00;98025.06;4987023;28;20077;-82
2021/09/20 05:09:20;;;;;;;21.08;11.95;;;;;;;11.72;100.00;98008.28;4985456;28;20065;-82
2021/09/20 05:11:47;;;;;;;25.42;11.60;;;;;;;11.78;100.00;98017.91;4988359;28;20050;-82
2021/09/20 05:14:13;;;;;;;23.17;11.27;;;;;;;11.88;100.00;98025.75;4988554;28;20061;-83
2021/09/20 05:16:40;;;;;;;19.50;10.82;;;;;;;11.96;100.00;98019.56;4989333;28;20051;-82
2021/09/20 05:19:09;;;;;;;21.30;11.25;;;;;;;11.95;100.00;98022.59;4972169;28;20066;-82
2021/09/20 05:21:35;;;;;;;20.63;11.75;;;;;;;11.94;100.00;98019.09;4965835;28;20050;-80
2021/09/20 05:24:02;;;;;;;21.48;11.52;;;;;;;11.82;100.00;98013.44;4975363;28;20121;-81
2021/09/20 05:26:29;;;;;;;16.85;10.63;;;;;;;12.05;100.00;98027.75;4960072;28;20151;-81
2021/09/20 05:28:56;;;;;;;21.38;11.02;;;;;;;11.83;100.00;98013.13;4959821;28;20051;-80
2021/09/20 05:31:26;;;;;;;22.73;11.15;;;;;;;11.87;100.00;98016.81;4954862;28;20058;-82
2021/09/20 05:33:56;;;;;;;19.17;11.38;;;;;;;11.95;100.00;98009.81;4972620;28;20046;-82
2021/09/20 05:36:22;;;;;;;19.88;11.25;;;;;;;12.00;100.00;98014.31;4982660;28;20065;-83
2021/09/20 05:38:49;;;;;;;19.10;10.75;;;;;;;12.18;100.00;98024.13;4953341;28;20535;-81
2021/09/20 05:41:16;;;;;;;17.95;10.40;;;;;;;12.25;100.00;98033.41;4952065;28;20062;-81
2021/09/20 05:43:42;;;;;;;20.02;11.13;;;;;;;12.17;100.00;98036.88;4972771;28;20050;-81
2021/09/20 05:46:09;;;;;;;20.38;10.88;;;;;;;12.11;100.00;98024.56;4954189;28;20812;-82
2021/09/20 05:48:36;;;;;;;24.42;10.75;;;;;;;11.95;100.00;98038.88;4984165;28;20127;-81
2021/09/20 05:51:03;;;;;;;19.15;10.90;;;;;;;11.95;100.00;98041.59;4985502;28;20133;-82
2021/09/20 05:53:29;;;;;;;19.30;11.55;;;;;;;12.05;100.00;98050.25;4986554;28;20062;-83
2021/09/20 05:55:56;;;;;;;19.20;10.93;;;;;;;12.16;100.00;98051.56;4967155;28;20511;-81
2021/09/20 05:58:22;;;;;;;18.73;10.65;;;;;;;12.16;100.00;98059.69;4975109;28;20049;-80
2021/09/20 06:00:50;;;;;;;16.55;10.60;;;;;;;12.21;100.00;98048.69;4967964;28;20051;-81
2021/09/20 06:03:20;;;;;;;21.75;11.35;;;;;;;12.41;100.00;98058.19;4967118;28;20053;-81
2021/09/20 06:05:54;;;;;;;18.92;10.95;;;;;;;12.30;100.00;98040.59;4999068;28;20049;-81
2021/09/20 06:08:21;;;;;;;18.55;11.50;;;;;;;12.09;100.00;98029.50;4984446;28;20042;-81
2021/09/20 06:10:47;;;;;;;18.95;10.90;;;;;;;12.28;100.00;98037.38;4994814;28;20288;-81
2021/09/20 06:13:16;;;;;;;18.25;9.63;;;;;;;12.41;100.00;98050.81;4963666;28;20047;-80
2021/09/20 06:15:43;;;;;;;17.20;10.82;;;;;;;12.42;100.00;98063.28;4963650;28;20058;-80
2021/09/20 06:18:10;;;;;;;20.52;11.25;;;;;;;12.44;100.00;98058.34;4958373;28;20147;-81
2021/09/20 06:20:36;;;;;;;20.25;10.40;;;;;;;12.25;100.00;98052.41;4974248;28;20054;-82
2021/09/20 06:23:04;;;;;;;15.63;9.77;;;;;;;12.05;100.00;98058.41;4956558;28;20078;-81
2021/09/20 06:25:30;;;;;;;17.75;10.07;;;;;;;12.33;100.00;98065.19;4956506;28;20058;-83
2021/09/20 06:28:01;;;;;;;16.13;9.48;;;;;;;12.52;100.00;98073.03;4958057;28;20058;-81
2021/09/20 06:30:28;;;;;;;16.02;10.02;;;;;;;12.43;100.00;98072.25;4975828;28;20055;-81
2021/09/20 06:32:54;;;;;;;17.45;9.48;;;;;;;12.43;100.00;98069.53;4978068;28;20059;-83
2021/09/20 06:35:21;;;;;;;16.83;9.63;;;;;;;12.60;100.00;98074.19;4960347;28;20054;-82
2021/09/20 06:37:47;;;;;;;20.38;9.68;;;;;;;12.54;100.00;98070.03;4989430;23;20057;-81
2021/09/20 06:40:14;;;;;;;16.77;9.30;;;;;;;12.69;100.00;98062.22;5013724;28;20517;-81
2021/09/20 06:42:41;;;;;;;14.27;9.05;;;;;;;12.50;100.00;98075.28;5021840;28;20054;-81
2021/09/20 06:45:09;;;;;;;17.92;9.40;;;;;;;12.44;100.00;98068.38;5004785;28;20050;-81
2021/09/20 06:47:35;;;;;;;21.05;9.48;;;;;;;12.63;100.00;98066.19;5017149;28;20042;-81
2021/09/20 06:50:04;;;;;;;19.00;8.35;;;;;;;12.73;100.00;98073.25;5000210;23;20046;-82
2021/09/20 06:52:31;;;;;;;18.05;8.95;;;;;;;12.65;100.00;98066.69;4978157;28;20210;-83
2021/09/20 06:54:58;;;;;;;18.10;8.73;;;;;;;12.71;100.00;98062.69;4997183;28;20195;-81
2021/09/20 06:57:25;;;;;;;18.90;8.85;;;;;;;12.93;100.00;98076.13;4989166;28;20104;-82
2021/09/20 06:59:52;;;;;;;15.05;8.98;;;;;;;12.87;100.00;98076.63;5015706;28;20842;-82
2021/09/20 07:02:19;;;;;;;16.80;8.75;;;;;;;12.84;100.00;98083.50;5014660;28;20057;-82
2021/09/20 07:04:45;;;;;;;13.77;7.85;;;;;;;12.82;100.00;98076.78;4998920;28;20053;-84
2021/09/20 07:07:14;;;;;;;14.88;8.70;;;;;;;12.93;100.00;98076.13;5019217;28;20050;-83
2021/09/20 07:09:41;;;;;;;15.43;8.57;;;;;;;12.92;100.00;98077.28;5015282;28;20060;-84
2021/09/20 07:12:08;;;;;;;14.15;8.32;;;;;;;13.13;100.00;98080.19;5014990;28;20132;-83
2021/09/20 07:14:35;;;;;;;15.70;8.73;;;;;;;13.11;100.00;98085.13;5014821;28;20478;-80
2021/09/20 07:17:02;;;;;;;22.55;9.10;;;;;;;12.98;100.00;98086.84;4997261;28;20518;-83
2021/09/20 07:19:48;;;;;;;13.98;9.30;;;;;;;13.10;100.00;98086.25;5013691;28;20572;-83
2021/09/20 07:22:15;;;;;;;14.98;9.13;;;;;;;13.26;100.00;98100.16;4996408;28;20561;-83
2021/09/20 07:24:45;;;;;;;17.33;8.88;;;;;;;12.79;100.00;98093.72;5013753;28;20049;-83
2021/09/20 07:27:11;;;;;;;15.70;8.80;;;;;;;13.24;100.00;98096.97;5012789;28;20054;-82
2021/09/20 07:29:38;;;;;;;18.27;9.88;;;;;;;13.27;100.00;98104.47;5014391;28;20418;-82
2021/09/20 07:32:05;;;;;;;16.25;8.60;;;;;;;13.13;100.00;98098.41;4996038;28;20076;-83
2021/09/20 07:34:31;;;;;;;16.20;8.60;;;;;;;13.36;100.00;98108.81;5014041;28;20165;-82
2021/09/20 07:36:58;;;;;;;12.50;8.15;;;;;;;13.25;100.00;98104.81;5013583;28;20188;-82
2021/09/20 07:39:25;;;;;;;14.93;8.10;;;;;;;13.36;100.00;98111.53;5013436;28;20076;-83
2021/09/20 07:41:51;;;;;;;14.98;8.68;;;;;;;13.50;100.00;98119.50;5012934;28;20054;-80
2021/09/20 07:44:18;;;;;;;14.63;7.97;;;;;;;13.30;100.00;98103.84;5014185;28;20050;-82
2021/09/20 07:46:44;;;;;;;14.55;8.18;;;;;;;13.51;100.00;98116.47;5014640;28;20112;-84
2021/09/20 07:49:11;;;;;;;14.05;8.63;;;;;;;13.15;100.00;98110.56;5013333;28;20064;-83
2021/09/20 07:51:38;;;;;;;11.77;7.90;;;;;;;13.04;100.00;98117.41;4994994;28;20058;-83
2021/09/20 07:54:05;;;;;;;15.63;7.93;;;;;;;13.24;100.00;98119.50;5012428;28;20046;-83
2021/09/20 07:56:32;;;;;;;11.27;7.68;;;;;;;13.78;100.00;98123.47;5012502;28;20045;-84
2021/09/20 07:59:00;;;;;;;14.95;8.52;;;;;;;13.77;100.00;98119.16;5011945;28;20150;-82
2021/09/20 08:01:28;;;;;;;16.13;7.57;;;;;;;13.45;100.00;98134.06;5010494;28;20282;-81
2021/09/20 08:03:56;;;;;;;12.73;8.00;;;;;;;13.32;100.00;98129.59;5011278;28;20160;-83
2021/09/20 08:06:24;;;;;;;13.68;7.93;;;;;;;13.23;100.00;98131.50;5010276;28;20061;-84
2021/09/20 08:08:51;;;;;;;15.88;8.13;;;;;;;13.86;100.00;98138.19;4993156;28;20445;-82
2021/09/20 08:11:18;;;;;;;12.73;8.23;;;;;;;14.32;100.00;98130.84;4992864;28;20058;-84
2021/09/20 08:13:45;;;;;;;15.32;7.78;;;;;;;13.96;100.00;98138.63;5010259;28;20045;-82
2021/09/20 08:16:11;;;;;;;11.40;6.30;;;;;;;13.70;100.00;98146.84;4992914;28;20406;-83
2021/09/20 08:18:38;;;;;;;13.18;7.30;;;;;;;14.07;100.00;98125.47;5010316;28;20054;-81
2021/09/20 08:21:06;;;;;;;13.98;6.78;;;;;;;13.95;100.00;98136.22;4992859;28;20053;-83
2021/09/20 08:23:34;;;;;;;10.85;6.50;;;;;;;14.19;100.00;98126.41;5010607;28;20213;-84
2021/09/20 08:26:01;;;;;;;11.25;6.07;;;;;;;13.94;100.00;98143.59;5010952;28;20053;-84
2021/09/20 08:28:28;;;;;;;13.70;5.80;;;;;;;13.85;100.00;98140.09;4993711;28;20054;-84
2021/09/20 08:30:55;;;;;;;9.30;5.40;;;;;;;13.73;100.00;98148.09;5009849;28;20069;-86
2021/09/20 08:33:21;;;;;;;9.40;4.97;;;;;;;14.14;100.00;98145.59;4991819;28;20479;-84
2021/09/20 08:35:48;;;;;;;9.77;5.20;;;;;;;14.55;100.00;98130.59;5009505;28;20061;-83
2021/09/20 08:38:14;;;;;;;7.28;5.18;;;;;;;14.71;100.00;98131.63;5009207;28;20045;-84
2021/09/20 08:40:41;;;;;;;10.13;5.13;;;;;;;14.45;100.00;98133.69;5009861;28;20128;-83
2021/09/20 08:43:07;;;;;;;11.13;5.20;;;;;;;13.89;100.00;98143.75;5009792;28;20137;-83
2021/09/20 08:45:34;;;;;;;8.88;5.63;;;;;;;13.85;100.00;98134.66;4992248;28;20058;-85
2021/09/20 08:48:03;;;;;;;10.65;4.85;;;;;;;14.41;100.00;98135.47;5009507;28;20241;-84
2021/09/20 08:50:36;;;;;;;8.35;5.10;;;;;;;14.57;100.00;98136.50;4994396;28;20057;-83
2021/09/20 08:53:05;;;;;;;8.57;4.85;;;;;;;14.54;100.00;98131.72;4991924;28;20449;-83
2021/09/20 08:55:32;;;;;;;7.78;5.22;;;;;;;14.60;100.00;98141.31;5010101;28;20069;-83
2021/09/20 08:57:59;;;;;;;8.90;5.15;;;;;;;15.04;100.00;98146.19;5010395;28;20046;-84
2021/09/20 09:00:26;;;;;;;7.95;5.07;;;;;;;15.09;100.00;98142.44;4992786;28;20104;-84
2021/09/20 09:02:53;;;;;;;8.23;4.97;;;;;;;14.33;100.00;98137.91;4993329;28;20103;-82
2021/09/20 09:05:27;;;;;;;10.85;5.47;;;;;;;14.25;100.00;98144.13;5010202;28;20054;-86
2021/09/20 09:08:06;;;;;;;11.07;4.82;;;;;;;14.75;100.00;98148.91;5009818;28;20050;-84
2021/09/20 09:10:36;;;;;;;6.30;4.15;;;;;;;14.10;100.00;98152.03;5008706;28;20495;-83
2021/09/20 09:13:06;;;;;;;8.98;4.60;;;;;;;14.11;100.00;98150.94;4990676;28;20190;-83
2021/09/20 09:15:35;;;;;;;8.20;3.95;;;;;;;14.26;100.00;98158.56;5008550;28;20053;-84
2021/09/20 09:18:02;;;;;;;5.88;3.67;;;;;;;14.45;100.00;98148.13;4990538;28;20143;-83
2021/09/20 09:20:37;;;;;;;6.10;4.10;;;;;;;14.35;100.00;98151.19;4990670;28;20062;-83
2021/09/20 09:23:10;;;;;;;8.65;4.15;;;;;;;15.02;100.00;98153.09;5009338;28;20054;-84
2021/09/20 09:25:48;;;;;;;5.93;4.05;;;;;;;14.65;100.00;98155.53;4994417;28;20042;-83
2021/09/20 09:28:19;;;;;;;6.78;4.00;;;;;;;15.33;100.00;98156.25;4992006;28;20056;-85
2021/09/20 09:30:55;;;;;;;9.68;3.53;;;;;;;15.84;100.00;98163.22;5009547;28;20062;-81
2021/09/20 09:33:34;;;;;;;8.63;4.18;;;;;;;15.51;100.00;98161.25;5010118;28;20077;-81
2021/09/20 09:36:02;;;;;;;10.23;3.72;;;;;;;15.91;100.00;98163.47;5010993;28;20103;-83
2021/09/20 09:38:29;;;;;;;10.50;4.13;;;;;;;15.97;100.00;98157.47;5010265;28;20483;-83
2021/09/20 09:40:58;;;;;;;5.60;3.70;;;;;;;16.07;100.00;98151.56;4991568;28;20152;-82
2021/09/20 09:43:35;;;;;;;6.40;3.40;;;;;;;15.42;100.00;98149.59;5009658;28;20432;-82
2021/09/20 09:46:18;;;;;;;7.90;3.13;;;;;;;15.68;100.00;98149.38;5009603;28;20050;-82
2021/09/20 09:48:45;;;;;;;3.42;2.40;;;;;;;15.92;100.00;98156.88;4991231;28;20595;-82
2021/09/20 09:51:12;;;;;;;4.53;3.00;;;;;;;15.51;100.00;98150.31;5007413;28;20054;-81
2021/09/20 09:53:43;;;;;;;7.32;2.70;;;;;;;14.99;89.50;98154.56;5007794;28;20441;-81
2021/09/20 09:56:17;;;;;;;5.07;2.45;;;;;;;15.35;86.94;98151.25;4994174;28;20115;-85
2021/09/20 09:58:58;;;;;;;6.07;2.20;;;;;;;15.59;76.15;98154.09;4994718;28;20405;-84
2021/09/20 10:01:36;;;;;;;9.73;2.40;;;;;;;15.66;85.04;98151.66;4991880;28;20071;-83
2021/09/20 10:04:09;;;;;;;5.68;2.85;;;;;;;15.36;80.24;98156.38;4991247;28;20495;-83
2021/09/20 10:06:42;;;;;;;6.07;2.75;;;;;;;14.84;82.94;98157.88;5007687;28;20054;-82
2021/09/20 10:09:10;;;;;;;7.78;2.60;;;;;;;15.34;96.35;98163.28;4994949;28;20061;-82
2021/09/20 10:11:39;;;;;;;3.85;2.13;;;;;;;15.41;76.90;98158.09;4994462;28;20053;-83
2021/09/20 10:14:07;;;;;;;6.63;2.65;;;;;;;15.12;73.97;98160.88;5011547;28;20053;-83
2021/09/20 10:16:35;;;;;;;7.60;2.60;;;;;;;16.02;80.25;98153.72;4995319;28;20085;-84
2021/09/20 10:19:05;;;;;;;9.73;3.55;;;;;;;16.30;80.40;98154.69;4995225;28;20050;-84
2021/09/20 10:21:33;;;;;;;9.20;2.30;;;;;;;16.81;72.40;98145.84;5013848;28;20069;-83
2021/09/20 10:24:01;;;;;;;3.42;2.05;;;;;;;16.27;60.31;98160.03;5015137;28;20054;-83
2021/09/20 10:26:28;;;;;;;5.65;1.95;;;;;;;16.68;67.42;98155.19;4995630;28;20534;-82
2021/09/20 10:28:57;;;;;;;2.13;1.40;;;;;;;16.52;56.91;98158.91;5007995;28;20127;-81
2021/09/20 10:31:26;;;;;;;4.68;1.60;;;;;;;16.57;58.28;98153.28;4991817;28;20527;-84
2021/09/20 10:34:25;;;;;;;4.43;1.55;;;;;;;16.17;57.30;98144.88;4983660;28;20049;-84
2021/09/20 10:37:06;;;;;;;3.38;1.40;;;;;;;16.32;55.77;98140.66;4992805;28;20065;-82
2021/09/20 10:39:46;;;;;;;3.28;1.50;;;;;;;16.42;57.18;98146.50;5001501;28;20080;-83
2021/09/20 10:42:51;;;;;;;4.88;1.70;;;;;;;16.50;64.08;98151.06;5000367;28;20053;-86
2021/09/20 10:45:46;;;;;;;3.97;2.20;;;;;;;15.90;61.59;98150.94;4998182;28;20061;-82
2021/09/20 10:48:16;;;;;;;4.07;1.77;;;;;;;16.08;61.55;98149.63;5000475;28;20045;-84
2021/09/20 10:50:59;;;;;;;3.78;1.85;;;;;;;16.24;63.57;98147.84;5001450;28;20222;-83
2021/09/20 10:53:35;;;;;;;3.38;1.70;;;;;;;16.49;64.88;98156.88;5018863;28;20056;-82
2021/09/20 10:56:06;;;;;;;6.40;1.90;;;;;;;16.51;58.51;98160.88;5018803;28;20050;-82
2021/09/20 10:58:35;;;;;;;3.15;1.63;;;;;;;16.58;58.60;98154.84;5013092;28;20145;-82
2021/09/20 11:01:11;;;;;;;8.25;2.05;;;;;;;16.82;56.90;98160.34;5011134;28;20069;-82
2021/09/20 11:03:39;;;;;;;4.65;1.90;;;;;;;16.77;62.62;98153.16;4992538;28;20081;-85
2021/09/20 11:06:40;;;;;;;4.00;1.95;;;;;;;16.84;64.53;98163.53;5005929;28;20096;-83
2021/09/20 11:09:07;;;;;;;9.20;2.25;;;;;;;16.98;63.71;98163.19;5003152;28;20125;-86
2021/09/20 11:11:40;;;;;;;7.28;3.53;;;;;;;17.23;62.42;98175.66;5020606;28;20171;-83
2021/09/20 11:14:19;;;;;;;6.05;2.60;;;;;;;17.21;59.10;98167.03;4998065;28;20065;-82
2021/09/20 11:16:56;;;;;;;3.40;1.77;;;;;;;16.41;56.98;98169.50;5012168;28;20686;-80
2021/09/20 11:19:33;;;;;;;5.05;2.10;;;;;;;16.05;60.97;98163.97;5015533;28;20533;-81
2021/09/20 11:22:03;;;;;;;3.88;1.80;;;;;;;16.15;63.18;98172.53;4997763;28;20061;-81
2021/09/20 11:24:35;;;;;;;6.20;2.35;;;;;;;15.97;65.34;98168.38;5013938;28;20081;-83
2021/09/20 11:27:05;;;;;;;4.05;2.20;;;;;;;15.34;66.43;98168.75;5014232;28;20049;-82